sensor_id;sensor_type;location;lat;lon;timestamp;P1;durP1;ratioP1;P2;durP2;ratioP2
5718;SDS011;2884;47.734;9.244;2022-12-07T00:01:39;32.80;;;21.83;;
5718;SDS011;2884;47.734;9.244;2022-12-07T00:04:06;34.58;;;20.70;;
5718;SDS011;2884;47.734;9.244;2022-12-07T00:06:34;37.20;;;22.77;;
5718;SDS011;2884;47.734;9.244;2022-12-07T00:09:01;33.58;;;21.60;;
5718;SDS011;2884;47.734;9.244;2022-12-07T00:11:26;30.67;;;20.73;;
5718;SDS011;2884;47.734;9.244;2022-12-07T00:13:56;31.93;;;21.50;;
5718;SDS011;2884;47.734;9.244;2022-12-07T00:16:24;36.80;;;21.63;;
5718;SDS011;2884;47.734;9.244;2022-12-07T00:18:51;35.08;;;21.48;;
5718;SDS011;2884;47.734;9.244;2022-12-07T00:21:18;34.97;;;23.70;;
5718;SDS011;2884;47.734;9.244;2022-12-07T00:23:45;34.20;;;22.10;;
5718;SDS011;2884;47.734;9.244;2022-12-07T00:26:12;32.15;;;20.55;;
5718;SDS011;2884;47.734;9.244;2022-12-07T00:28:40;33.45;;;20.50;;
5718;SDS011;2884;47.734;9.244;2022-12-07T00:31:06;37.67;;;23.50;;
5718;SDS011;2884;47.734;9.244;2022-12-07T00:33:34;35.00;;;22.25;;
5718;SDS011;2884;47.734;9.244;2022-12-07T00:36:00;32.05;;;21.60;;
5718;SDS011;2884;47.734;9.244;2022-12-07T00:38:27;37.78;;;22.63;;
5718;SDS011;2884;47.734;9.244;2022-12-07T00:40:55;34.90;;;21.85;;
5718;SDS011;2884;47.734;9.244;2022-12-07T00:43:22;30.77;;;20.58;;
5718;SDS011;2884;47.734;9.244;2022-12-07T00:45:48;34.27;;;20.13;;
5718;SDS011;2884;47.734;9.244;2022-12-07T00:48:13;33.67;;;22.30;;
5718;SDS011;2884;47.734;9.244;2022-12-07T00:50:39;29.40;;;19.90;;
5718;SDS011;2884;47.734;9.244;2022-12-07T00:53:04;27.20;;;19.53;;
5718;SDS011;2884;47.734;9.244;2022-12-07T00:55:33;31.53;;;21.90;;
5718;SDS011;2884;47.734;9.244;2022-12-07T00:58:00;29.92;;;20.45;;
5718;SDS011;2884;47.734;9.244;2022-12-07T01:00:25;29.30;;;19.40;;
5718;SDS011;2884;47.734;9.244;2022-12-07T01:02:50;33.33;;;20.97;;
5718;SDS011;2884;47.734;9.244;2022-12-07T01:05:16;32.03;;;20.27;;
5718;SDS011;2884;47.734;9.244;2022-12-07T01:07:42;36.07;;;20.93;;
5718;SDS011;2884;47.734;9.244;2022-12-07T01:10:26;26.08;;;18.35;;
5718;SDS011;2884;47.734;9.244;2022-12-07T01:12:52;26.83;;;19.98;;
5718;SDS011;2884;47.734;9.244;2022-12-07T01:15:17;30.63;;;21.23;;
5718;SDS011;2884;47.734;9.244;2022-12-07T01:17:43;30.80;;;19.30;;
5718;SDS011;2884;47.734;9.244;2022-12-07T01:20:09;31.33;;;19.50;;
5718;SDS011;2884;47.734;9.244;2022-12-07T01:22:41;29.40;;;19.85;;
5718;SDS011;2884;47.734;9.244;2022-12-07T01:25:07;26.50;;;17.77;;
5718;SDS011;2884;47.734;9.244;2022-12-07T01:27:34;29.70;;;19.98;;
5718;SDS011;2884;47.734;9.244;2022-12-07T01:30:00;32.47;;;21.57;;
5718;SDS011;2884;47.734;9.244;2022-12-07T01:32:26;31.10;;;19.15;;
5718;SDS011;2884;47.734;9.244;2022-12-07T01:34:52;31.23;;;21.17;;
5718;SDS011;2884;47.734;9.244;2022-12-07T01:37:18;32.93;;;21.10;;
5718;SDS011;2884;47.734;9.244;2022-12-07T01:39:43;37.97;;;20.77;;
5718;SDS011;2884;47.734;9.244;2022-12-07T01:42:12;27.73;;;18.43;;
5718;SDS011;2884;47.734;9.244;2022-12-07T01:47:41;28.85;;;19.48;;
5718;SDS011;2884;47.734;9.244;2022-12-07T01:50:09;29.45;;;19.98;;
5718;SDS011;2884;47.734;9.244;2022-12-07T01:52:35;32.63;;;19.63;;
5718;SDS011;2884;47.734;9.244;2022-12-07T01:55:07;30.35;;;19.30;;
5718;SDS011;2884;47.734;9.244;2022-12-07T01:57:35;28.48;;;18.05;;
5718;SDS011;2884;47.734;9.244;2022-12-07T02:00:04;26.33;;;17.90;;
5718;SDS011;2884;47.734;9.244;2022-12-07T02:02:32;29.30;;;18.52;;
5718;SDS011;2884;47.734;9.244;2022-12-07T02:04:59;28.58;;;18.15;;
5718;SDS011;2884;47.734;9.244;2022-12-07T02:07:25;26.20;;;16.88;;
5718;SDS011;2884;47.734;9.244;2022-12-07T02:09:52;24.25;;;16.20;;
5718;SDS011;2884;47.734;9.244;2022-12-07T02:12:17;26.60;;;17.03;;
5718;SDS011;2884;47.734;9.244;2022-12-07T02:14:44;25.25;;;17.00;;
5718;SDS011;2884;47.734;9.244;2022-12-07T02:17:19;27.67;;;17.93;;
5718;SDS011;2884;47.734;9.244;2022-12-07T02:20:17;26.42;;;16.83;;
5718;SDS011;2884;47.734;9.244;2022-12-07T02:22:54;29.98;;;17.67;;
5718;SDS011;2884;47.734;9.244;2022-12-07T02:31:06;31.25;;;19.63;;
5718;SDS011;2884;47.734;9.244;2022-12-07T02:33:54;30.92;;;19.65;;
5718;SDS011;2884;47.734;9.244;2022-12-07T02:36:43;33.53;;;21.70;;
5718;SDS011;2884;47.734;9.244;2022-12-07T02:39:17;31.63;;;20.65;;
5718;SDS011;2884;47.734;9.244;2022-12-07T02:41:51;31.88;;;19.35;;
5718;SDS011;2884;47.734;9.244;2022-12-07T02:44:20;33.85;;;21.00;;
5718;SDS011;2884;47.734;9.244;2022-12-07T02:46:52;34.17;;;21.00;;
5718;SDS011;2884;47.734;9.244;2022-12-07T02:49:23;34.22;;;21.35;;
5718;SDS011;2884;47.734;9.244;2022-12-07T02:51:50;31.15;;;20.48;;
5718;SDS011;2884;47.734;9.244;2022-12-07T02:54:18;34.53;;;22.17;;
5718;SDS011;2884;47.734;9.244;2022-12-07T03:02:38;37.58;;;21.63;;
5718;SDS011;2884;47.734;9.244;2022-12-07T03:05:25;37.38;;;22.58;;
5718;SDS011;2884;47.734;9.244;2022-12-07T03:08:09;37.15;;;23.25;;
5718;SDS011;2884;47.734;9.244;2022-12-07T03:13:35;40.47;;;23.73;;
5718;SDS011;2884;47.734;9.244;2022-12-07T03:18:42;38.95;;;22.98;;
5718;SDS011;2884;47.734;9.244;2022-12-07T03:21:11;38.80;;;23.33;;
5718;SDS011;2884;47.734;9.244;2022-12-07T03:23:40;34.30;;;20.30;;
5718;SDS011;2884;47.734;9.244;2022-12-07T03:26:08;29.52;;;18.98;;
5718;SDS011;2884;47.734;9.244;2022-12-07T03:28:36;28.95;;;17.80;;
5718;SDS011;2884;47.734;9.244;2022-12-07T03:31:09;30.33;;;19.60;;
5718;SDS011;2884;47.734;9.244;2022-12-07T03:34:21;30.50;;;19.23;;
5718;SDS011;2884;47.734;9.244;2022-12-07T03:39:03;35.73;;;20.03;;
5718;SDS011;2884;47.734;9.244;2022-12-07T03:41:33;34.63;;;20.73;;
5718;SDS011;2884;47.734;9.244;2022-12-07T03:44:02;31.55;;;19.20;;
5718;SDS011;2884;47.734;9.244;2022-12-07T03:49:48;31.63;;;19.92;;
5718;SDS011;2884;47.734;9.244;2022-12-07T03:52:22;36.45;;;19.27;;
5718;SDS011;2884;47.734;9.244;2022-12-07T03:57:27;28.50;;;18.63;;
5718;SDS011;2884;47.734;9.244;2022-12-07T03:59:54;37.33;;;20.90;;
5718;SDS011;2884;47.734;9.244;2022-12-07T04:02:21;39.15;;;21.35;;
5718;SDS011;2884;47.734;9.244;2022-12-07T04:04:47;41.72;;;22.65;;
5718;SDS011;2884;47.734;9.244;2022-12-07T04:07:13;38.40;;;22.00;;
5718;SDS011;2884;47.734;9.244;2022-12-07T04:09:38;39.60;;;21.50;;
5718;SDS011;2884;47.734;9.244;2022-12-07T04:12:04;44.93;;;24.00;;
5718;SDS011;2884;47.734;9.244;2022-12-07T04:14:30;44.57;;;23.03;;
5718;SDS011;2884;47.734;9.244;2022-12-07T04:16:56;46.27;;;24.10;;
5718;SDS011;2884;47.734;9.244;2022-12-07T04:19:24;36.95;;;20.70;;
5718;SDS011;2884;47.734;9.244;2022-12-07T04:21:52;42.88;;;20.95;;
5718;SDS011;2884;47.734;9.244;2022-12-07T04:24:18;46.27;;;24.20;;
5718;SDS011;2884;47.734;9.244;2022-12-07T04:26:43;40.63;;;23.33;;
5718;SDS011;2884;47.734;9.244;2022-12-07T04:29:10;50.20;;;25.02;;
5718;SDS011;2884;47.734;9.244;2022-12-07T04:31:35;43.87;;;22.73;;
5718;SDS011;2884;47.734;9.244;2022-12-07T04:34:01;47.40;;;24.53;;
5718;SDS011;2884;47.734;9.244;2022-12-07T04:36:27;44.50;;;23.40;;
5718;SDS011;2884;47.734;9.244;2022-12-07T04:38:53;43.00;;;22.77;;
5718;SDS011;2884;47.734;9.244;2022-12-07T04:41:20;56.88;;;26.40;;
5718;SDS011;2884;47.734;9.244;2022-12-07T04:43:57;46.67;;;24.73;;
5718;SDS011;2884;47.734;9.244;2022-12-07T04:46:24;47.83;;;23.27;;
5718;SDS011;2884;47.734;9.244;2022-12-07T04:48:54;43.42;;;22.92;;
5718;SDS011;2884;47.734;9.244;2022-12-07T04:51:21;49.30;;;25.38;;
5718;SDS011;2884;47.734;9.244;2022-12-07T04:53:51;41.75;;;23.98;;
5718;SDS011;2884;47.734;9.244;2022-12-07T04:56:17;42.70;;;23.13;;
5718;SDS011;2884;47.734;9.244;2022-12-07T04:58:43;44.20;;;23.90;;
5718;SDS011;2884;47.734;9.244;2022-12-07T05:01:10;42.97;;;24.05;;
5718;SDS011;2884;47.734;9.244;2022-12-07T05:03:36;43.20;;;24.10;;
5718;SDS011;2884;47.734;9.244;2022-12-07T05:06:02;43.40;;;24.50;;
5718;SDS011;2884;47.734;9.244;2022-12-07T05:08:28;50.07;;;22.87;;
5718;SDS011;2884;47.734;9.244;2022-12-07T05:10:53;44.50;;;22.63;;
5718;SDS011;2884;47.734;9.244;2022-12-07T05:13:19;47.97;;;25.53;;
5718;SDS011;2884;47.734;9.244;2022-12-07T05:15:46;50.93;;;23.90;;
5718;SDS011;2884;47.734;9.244;2022-12-07T05:18:12;43.45;;;23.88;;
5718;SDS011;2884;47.734;9.244;2022-12-07T05:20:38;42.10;;;23.17;;
5718;SDS011;2884;47.734;9.244;2022-12-07T05:23:04;47.35;;;24.25;;
5718;SDS011;2884;47.734;9.244;2022-12-07T05:25:29;45.60;;;22.90;;
5718;SDS011;2884;47.734;9.244;2022-12-07T05:27:55;45.20;;;24.27;;
5718;SDS011;2884;47.734;9.244;2022-12-07T05:30:22;42.80;;;23.70;;
5718;SDS011;2884;47.734;9.244;2022-12-07T05:32:50;42.70;;;23.90;;
5718;SDS011;2884;47.734;9.244;2022-12-07T05:35:17;46.75;;;25.98;;
5718;SDS011;2884;47.734;9.244;2022-12-07T05:37:43;43.17;;;22.33;;
5718;SDS011;2884;47.734;9.244;2022-12-07T05:40:09;44.20;;;23.20;;
5718;SDS011;2884;47.734;9.244;2022-12-07T05:42:38;42.33;;;23.30;;
5718;SDS011;2884;47.734;9.244;2022-12-07T05:45:04;38.55;;;22.33;;
5718;SDS011;2884;47.734;9.244;2022-12-07T05:47:30;40.25;;;22.88;;
5718;SDS011;2884;47.734;9.244;2022-12-07T05:49:56;36.63;;;21.33;;
5718;SDS011;2884;47.734;9.244;2022-12-07T05:52:21;40.60;;;22.90;;
5718;SDS011;2884;47.734;9.244;2022-12-07T05:54:47;40.50;;;22.27;;
5718;SDS011;2884;47.734;9.244;2022-12-07T05:57:13;40.20;;;22.60;;
5718;SDS011;2884;47.734;9.244;2022-12-07T05:59:38;36.30;;;20.30;;
5718;SDS011;2884;47.734;9.244;2022-12-07T06:02:05;37.70;;;22.17;;
5718;SDS011;2884;47.734;9.244;2022-12-07T06:04:33;37.55;;;21.17;;
5718;SDS011;2884;47.734;9.244;2022-12-07T06:07:03;38.35;;;21.63;;
5718;SDS011;2884;47.734;9.244;2022-12-07T06:09:29;42.28;;;23.35;;
5718;SDS011;2884;47.734;9.244;2022-12-07T06:11:56;36.95;;;21.40;;
5718;SDS011;2884;47.734;9.244;2022-12-07T06:14:42;34.40;;;20.45;;
5718;SDS011;2884;47.734;9.244;2022-12-07T06:17:08;42.67;;;22.43;;
5718;SDS011;2884;47.734;9.244;2022-12-07T06:19:34;39.67;;;21.67;;
5718;SDS011;2884;47.734;9.244;2022-12-07T06:22:00;37.95;;;20.92;;
5718;SDS011;2884;47.734;9.244;2022-12-07T06:24:26;39.28;;;20.92;;
5718;SDS011;2884;47.734;9.244;2022-12-07T06:26:52;36.10;;;20.50;;
5718;SDS011;2884;47.734;9.244;2022-12-07T06:29:17;38.70;;;20.83;;
5718;SDS011;2884;47.734;9.244;2022-12-07T06:31:43;35.80;;;20.80;;
5718;SDS011;2884;47.734;9.244;2022-12-07T06:34:10;37.88;;;20.92;;
5718;SDS011;2884;47.734;9.244;2022-12-07T06:36:37;33.83;;;20.05;;
5718;SDS011;2884;47.734;9.244;2022-12-07T06:39:03;35.17;;;20.03;;
5718;SDS011;2884;47.734;9.244;2022-12-07T06:41:30;32.13;;;19.52;;
5718;SDS011;2884;47.734;9.244;2022-12-07T06:43:56;34.37;;;20.83;;
5718;SDS011;2884;47.734;9.244;2022-12-07T06:46:21;30.87;;;19.17;;
5718;SDS011;2884;47.734;9.244;2022-12-07T06:48:55;32.58;;;19.67;;
5718;SDS011;2884;47.734;9.244;2022-12-07T06:51:20;33.07;;;19.70;;
5718;SDS011;2884;47.734;9.244;2022-12-07T06:53:46;32.23;;;19.13;;
5718;SDS011;2884;47.734;9.244;2022-12-07T06:56:11;31.47;;;17.77;;
5718;SDS011;2884;47.734;9.244;2022-12-07T06:58:37;27.60;;;16.63;;
5718;SDS011;2884;47.734;9.244;2022-12-07T07:01:07;34.50;;;20.30;;
5718;SDS011;2884;47.734;9.244;2022-12-07T07:03:36;40.13;;;19.67;;
5718;SDS011;2884;47.734;9.244;2022-12-07T07:06:02;35.28;;;21.42;;
5718;SDS011;2884;47.734;9.244;2022-12-07T07:08:28;31.17;;;19.80;;
5718;SDS011;2884;47.734;9.244;2022-12-07T07:10:54;35.07;;;19.37;;
5718;SDS011;2884;47.734;9.244;2022-12-07T07:13:19;33.97;;;19.90;;
5718;SDS011;2884;47.734;9.244;2022-12-07T07:15:45;34.70;;;20.63;;
5718;SDS011;2884;47.734;9.244;2022-12-07T07:18:10;44.83;;;23.73;;
5718;SDS011;2884;47.734;9.244;2022-12-07T07:20:36;33.77;;;19.07;;
5718;SDS011;2884;47.734;9.244;2022-12-07T07:23:02;32.37;;;18.33;;
5718;SDS011;2884;47.734;9.244;2022-12-07T07:25:27;31.20;;;19.37;;
5718;SDS011;2884;47.734;9.244;2022-12-07T07:27:53;36.17;;;19.83;;
5718;SDS011;2884;47.734;9.244;2022-12-07T07:30:18;27.30;;;17.53;;
5718;SDS011;2884;47.734;9.244;2022-12-07T07:32:44;24.20;;;17.60;;
5718;SDS011;2884;47.734;9.244;2022-12-07T07:35:10;28.60;;;17.87;;
5718;SDS011;2884;47.734;9.244;2022-12-07T07:37:35;29.00;;;17.97;;
5718;SDS011;2884;47.734;9.244;2022-12-07T07:40:00;27.87;;;17.10;;
5718;SDS011;2884;47.734;9.244;2022-12-07T07:42:26;27.27;;;16.40;;
5718;SDS011;2884;47.734;9.244;2022-12-07T07:44:52;23.07;;;15.47;;
5718;SDS011;2884;47.734;9.244;2022-12-07T07:47:17;22.30;;;15.60;;
5718;SDS011;2884;47.734;9.244;2022-12-07T07:49:43;29.23;;;16.20;;
5718;SDS011;2884;47.734;9.244;2022-12-07T07:52:09;26.63;;;16.48;;
5718;SDS011;2884;47.734;9.244;2022-12-07T07:54:35;26.67;;;16.60;;
5718;SDS011;2884;47.734;9.244;2022-12-07T07:57:01;24.13;;;16.33;;
5718;SDS011;2884;47.734;9.244;2022-12-07T07:59:26;23.07;;;14.83;;
5718;SDS011;2884;47.734;9.244;2022-12-07T08:01:51;30.50;;;17.93;;
5718;SDS011;2884;47.734;9.244;2022-12-07T08:04:18;27.58;;;17.15;;
5718;SDS011;2884;47.734;9.244;2022-12-07T08:06:43;27.17;;;16.10;;
5718;SDS011;2884;47.734;9.244;2022-12-07T08:09:08;24.83;;;16.10;;
5718;SDS011;2884;47.734;9.244;2022-12-07T08:11:34;27.90;;;17.73;;
5718;SDS011;2884;47.734;9.244;2022-12-07T08:14:01;26.08;;;16.30;;
5718;SDS011;2884;47.734;9.244;2022-12-07T08:16:27;29.07;;;17.33;;
5718;SDS011;2884;47.734;9.244;2022-12-07T08:18:52;29.60;;;17.27;;
5718;SDS011;2884;47.734;9.244;2022-12-07T08:21:18;29.90;;;17.30;;
5718;SDS011;2884;47.734;9.244;2022-12-07T08:23:43;28.53;;;15.40;;
5718;SDS011;2884;47.734;9.244;2022-12-07T08:26:11;30.50;;;17.73;;
5718;SDS011;2884;47.734;9.244;2022-12-07T08:28:37;27.92;;;16.58;;
5718;SDS011;2884;47.734;9.244;2022-12-07T08:31:04;24.40;;;15.43;;
5718;SDS011;2884;47.734;9.244;2022-12-07T08:33:32;29.15;;;16.30;;
5718;SDS011;2884;47.734;9.244;2022-12-07T08:36:01;25.75;;;15.80;;
5718;SDS011;2884;47.734;9.244;2022-12-07T08:38:28;29.52;;;16.88;;
5718;SDS011;2884;47.734;9.244;2022-12-07T08:40:54;24.70;;;15.30;;
5718;SDS011;2884;47.734;9.244;2022-12-07T08:43:21;28.92;;;16.20;;
5718;SDS011;2884;47.734;9.244;2022-12-07T08:45:47;22.10;;;14.67;;
5718;SDS011;2884;47.734;9.244;2022-12-07T08:48:14;20.67;;;13.20;;
5718;SDS011;2884;47.734;9.244;2022-12-07T08:50:42;19.60;;;13.38;;
5718;SDS011;2884;47.734;9.244;2022-12-07T08:53:07;21.57;;;13.63;;
5718;SDS011;2884;47.734;9.244;2022-12-07T08:55:33;19.27;;;13.00;;
5718;SDS011;2884;47.734;9.244;2022-12-07T08:57:59;21.88;;;14.48;;
5718;SDS011;2884;47.734;9.244;2022-12-07T09:00:26;23.00;;;14.32;;
5718;SDS011;2884;47.734;9.244;2022-12-07T09:02:52;22.88;;;13.27;;
5718;SDS011;2884;47.734;9.244;2022-12-07T09:05:18;20.60;;;12.75;;
5718;SDS011;2884;47.734;9.244;2022-12-07T09:07:44;19.03;;;12.93;;
5718;SDS011;2884;47.734;9.244;2022-12-07T09:10:12;22.98;;;13.65;;
5718;SDS011;2884;47.734;9.244;2022-12-07T09:12:37;21.80;;;13.23;;
5718;SDS011;2884;47.734;9.244;2022-12-07T09:15:03;18.60;;;13.23;;
5718;SDS011;2884;47.734;9.244;2022-12-07T09:17:31;18.33;;;12.60;;
5718;SDS011;2884;47.734;9.244;2022-12-07T09:19:58;19.40;;;13.00;;
5718;SDS011;2884;47.734;9.244;2022-12-07T09:22:23;17.80;;;12.40;;
5718;SDS011;2884;47.734;9.244;2022-12-07T09:24:49;18.40;;;12.20;;
5718;SDS011;2884;47.734;9.244;2022-12-07T09:27:15;16.60;;;11.20;;
5718;SDS011;2884;47.734;9.244;2022-12-07T09:29:42;20.33;;;13.18;;
5718;SDS011;2884;47.734;9.244;2022-12-07T09:32:08;16.70;;;12.47;;
5718;SDS011;2884;47.734;9.244;2022-12-07T09:34:34;18.27;;;12.20;;
5718;SDS011;2884;47.734;9.244;2022-12-07T09:37:00;16.77;;;11.70;;
5718;SDS011;2884;47.734;9.244;2022-12-07T09:39:26;17.40;;;11.93;;
5718;SDS011;2884;47.734;9.244;2022-12-07T09:41:52;17.57;;;11.37;;
5718;SDS011;2884;47.734;9.244;2022-12-07T09:44:21;16.33;;;11.23;;
5718;SDS011;2884;47.734;9.244;2022-12-07T09:46:49;19.10;;;12.65;;
5718;SDS011;2884;47.734;9.244;2022-12-07T09:49:22;17.63;;;12.00;;
5718;SDS011;2884;47.734;9.244;2022-12-07T09:52:03;15.70;;;11.73;;
5718;SDS011;2884;47.734;9.244;2022-12-07T09:54:43;22.02;;;13.30;;
5718;SDS011;2884;47.734;9.244;2022-12-07T09:57:12;21.25;;;12.82;;
5718;SDS011;2884;47.734;9.244;2022-12-07T09:59:37;18.43;;;12.77;;
5718;SDS011;2884;47.734;9.244;2022-12-07T10:02:22;17.95;;;11.68;;
5718;SDS011;2884;47.734;9.244;2022-12-07T10:05:09;16.88;;;12.00;;
5718;SDS011;2884;47.734;9.244;2022-12-07T10:07:37;19.05;;;12.63;;
5718;SDS011;2884;47.734;9.244;2022-12-07T10:10:04;17.17;;;12.00;;
5718;SDS011;2884;47.734;9.244;2022-12-07T10:15:20;19.38;;;12.02;;
5718;SDS011;2884;47.734;9.244;2022-12-07T10:17:52;19.67;;;13.07;;
5718;SDS011;2884;47.734;9.244;2022-12-07T10:22:55;18.95;;;13.35;;
5718;SDS011;2884;47.734;9.244;2022-12-07T10:25:35;20.00;;;12.50;;
5718;SDS011;2884;47.734;9.244;2022-12-07T10:31:37;17.05;;;11.50;;
5718;SDS011;2884;47.734;9.244;2022-12-07T10:33:55;17.13;;;11.80;;
5718;SDS011;2884;47.734;9.244;2022-12-07T10:39:32;16.88;;;11.52;;
5718;SDS011;2884;47.734;9.244;2022-12-07T10:44:22;17.55;;;12.13;;
5718;SDS011;2884;47.734;9.244;2022-12-07T10:55:13;16.05;;;10.00;;
5718;SDS011;2884;47.734;9.244;2022-12-07T11:00:25;15.00;;;10.25;;
5718;SDS011;2884;47.734;9.244;2022-12-07T11:21:57;17.50;;;10.33;;
5718;SDS011;2884;47.734;9.244;2022-12-07T11:24:50;15.38;;;10.50;;
5718;SDS011;2884;47.734;9.244;2022-12-07T11:37:48;9.00;;;6.45;;
5718;SDS011;2884;47.734;9.244;2022-12-07T11:43:00;8.37;;;6.57;;
5718;SDS011;2884;47.734;9.244;2022-12-07T11:45:55;7.03;;;5.70;;
5718;SDS011;2884;47.734;9.244;2022-12-07T11:48:46;9.98;;;6.72;;
5718;SDS011;2884;47.734;9.244;2022-12-07T11:51:34;7.30;;;6.00;;
5718;SDS011;2884;47.734;9.244;2022-12-07T11:54:03;6.82;;;5.72;;
5718;SDS011;2884;47.734;9.244;2022-12-07T11:56:34;8.38;;;6.20;;
5718;SDS011;2884;47.734;9.244;2022-12-07T12:06:32;12.15;;;6.88;;
5718;SDS011;2884;47.734;9.244;2022-12-07T12:19:44;10.05;;;6.65;;
5718;SDS011;2884;47.734;9.244;2022-12-07T12:22:44;6.25;;;5.40;;
5718;SDS011;2884;47.734;9.244;2022-12-07T12:25:54;9.90;;;5.80;;
5718;SDS011;2884;47.734;9.244;2022-12-07T12:31:05;7.53;;;5.70;;
5718;SDS011;2884;47.734;9.244;2022-12-07T12:33:46;4.22;;;3.83;;
5718;SDS011;2884;47.734;9.244;2022-12-07T12:51:48;7.80;;;4.68;;
5718;SDS011;2884;47.734;9.244;2022-12-07T12:54:21;7.45;;;5.70;;
5718;SDS011;2884;47.734;9.244;2022-12-07T12:59:41;7.22;;;5.60;;
5718;SDS011;2884;47.734;9.244;2022-12-07T13:05:02;7.13;;;5.35;;
5718;SDS011;2884;47.734;9.244;2022-12-07T13:13:03;6.82;;;5.50;;
5718;SDS011;2884;47.734;9.244;2022-12-07T13:15:41;7.60;;;5.68;;
5718;SDS011;2884;47.734;9.244;2022-12-07T13:28:41;13.25;;;7.68;;
5718;SDS011;2884;47.734;9.244;2022-12-07T13:31:13;9.27;;;7.32;;
5718;SDS011;2884;47.734;9.244;2022-12-07T13:33:45;11.82;;;8.95;;
5718;SDS011;2884;47.734;9.244;2022-12-07T13:36:17;10.60;;;7.47;;
5718;SDS011;2884;47.734;9.244;2022-12-07T13:38:50;14.60;;;9.98;;
5718;SDS011;2884;47.734;9.244;2022-12-07T13:41:24;11.70;;;9.13;;
5718;SDS011;2884;47.734;9.244;2022-12-07T13:44:08;11.32;;;8.80;;
5718;SDS011;2884;47.734;9.244;2022-12-07T13:49:32;14.82;;;10.40;;
5718;SDS011;2884;47.734;9.244;2022-12-07T13:54:43;12.38;;;8.98;;
5718;SDS011;2884;47.734;9.244;2022-12-07T13:57:10;13.02;;;8.68;;
5718;SDS011;2884;47.734;9.244;2022-12-07T13:59:35;12.27;;;8.80;;
5718;SDS011;2884;47.734;9.244;2022-12-07T14:02:16;11.57;;;8.63;;
5718;SDS011;2884;47.734;9.244;2022-12-07T14:04:43;11.65;;;9.07;;
5718;SDS011;2884;47.734;9.244;2022-12-07T14:07:25;12.40;;;8.37;;
5718;SDS011;2884;47.734;9.244;2022-12-07T14:09:59;11.55;;;8.52;;
5718;SDS011;2884;47.734;9.244;2022-12-07T14:12:26;11.32;;;7.65;;
5718;SDS011;2884;47.734;9.244;2022-12-07T14:14:53;10.18;;;6.80;;
5718;SDS011;2884;47.734;9.244;2022-12-07T14:17:20;13.18;;;6.72;;
5718;SDS011;2884;47.734;9.244;2022-12-07T14:19:51;9.38;;;6.05;;
5718;SDS011;2884;47.734;9.244;2022-12-07T14:22:27;8.65;;;6.85;;
5718;SDS011;2884;47.734;9.244;2022-12-07T14:25:44;7.95;;;6.32;;
5718;SDS011;2884;47.734;9.244;2022-12-07T14:27:50;9.98;;;6.00;;
5718;SDS011;2884;47.734;9.244;2022-12-07T14:30:22;14.63;;;7.10;;
5718;SDS011;2884;47.734;9.244;2022-12-07T14:32:52;7.15;;;5.38;;
5718;SDS011;2884;47.734;9.244;2022-12-07T14:35:19;9.25;;;6.65;;
5718;SDS011;2884;47.734;9.244;2022-12-07T14:37:45;7.77;;;5.80;;
5718;SDS011;2884;47.734;9.244;2022-12-07T14:40:17;6.95;;;5.55;;
5718;SDS011;2884;47.734;9.244;2022-12-07T14:42:44;9.02;;;6.38;;
5718;SDS011;2884;47.734;9.244;2022-12-07T14:45:17;7.82;;;5.90;;
5718;SDS011;2884;47.734;9.244;2022-12-07T14:47:44;8.05;;;5.60;;
5718;SDS011;2884;47.734;9.244;2022-12-07T14:50:14;10.13;;;6.35;;
5718;SDS011;2884;47.734;9.244;2022-12-07T14:52:42;8.43;;;6.93;;
5718;SDS011;2884;47.734;9.244;2022-12-07T14:55:12;6.53;;;5.65;;
5718;SDS011;2884;47.734;9.244;2022-12-07T14:57:38;7.10;;;5.53;;
5718;SDS011;2884;47.734;9.244;2022-12-07T15:00:04;7.27;;;5.47;;
5718;SDS011;2884;47.734;9.244;2022-12-07T15:02:30;11.93;;;7.18;;
5718;SDS011;2884;47.734;9.244;2022-12-07T15:04:56;9.60;;;7.20;;
5718;SDS011;2884;47.734;9.244;2022-12-07T15:07:22;11.50;;;7.10;;
5718;SDS011;2884;47.734;9.244;2022-12-07T15:09:47;10.90;;;7.03;;
5718;SDS011;2884;47.734;9.244;2022-12-07T15:12:13;9.60;;;6.82;;
5718;SDS011;2884;47.734;9.244;2022-12-07T15:14:39;10.60;;;6.70;;
5718;SDS011;2884;47.734;9.244;2022-12-07T15:17:04;28.60;;;15.30;;
5718;SDS011;2884;47.734;9.244;2022-12-07T15:19:30;9.53;;;6.63;;
5718;SDS011;2884;47.734;9.244;2022-12-07T15:21:56;7.83;;;6.30;;
5718;SDS011;2884;47.734;9.244;2022-12-07T15:24:22;12.32;;;5.82;;
5718;SDS011;2884;47.734;9.244;2022-12-07T15:26:49;16.63;;;6.10;;
5718;SDS011;2884;47.734;9.244;2022-12-07T15:29:14;12.70;;;6.67;;
5718;SDS011;2884;47.734;9.244;2022-12-07T15:31:41;9.15;;;6.20;;
5718;SDS011;2884;47.734;9.244;2022-12-07T15:34:06;8.87;;;5.80;;
5718;SDS011;2884;47.734;9.244;2022-12-07T15:36:32;7.53;;;5.60;;
5718;SDS011;2884;47.734;9.244;2022-12-07T15:38:58;9.45;;;6.15;;
5718;SDS011;2884;47.734;9.244;2022-12-07T15:41:24;10.30;;;5.67;;
5718;SDS011;2884;47.734;9.244;2022-12-07T15:43:50;6.63;;;5.27;;
5718;SDS011;2884;47.734;9.244;2022-12-07T15:46:37;9.38;;;6.60;;
5718;SDS011;2884;47.734;9.244;2022-12-07T15:49:10;9.18;;;7.28;;
5718;SDS011;2884;47.734;9.244;2022-12-07T15:51:39;13.48;;;7.72;;
5718;SDS011;2884;47.734;9.244;2022-12-07T15:57:11;7.82;;;6.50;;
5718;SDS011;2884;47.734;9.244;2022-12-07T15:59:37;10.63;;;7.03;;
5718;SDS011;2884;47.734;9.244;2022-12-07T16:02:02;9.17;;;7.17;;
5718;SDS011;2884;47.734;9.244;2022-12-07T16:04:28;11.50;;;7.70;;
5718;SDS011;2884;47.734;9.244;2022-12-07T16:06:55;12.98;;;8.75;;
5718;SDS011;2884;47.734;9.244;2022-12-07T16:09:21;11.23;;;8.18;;
5718;SDS011;2884;47.734;9.244;2022-12-07T16:11:46;11.30;;;8.30;;
5718;SDS011;2884;47.734;9.244;2022-12-07T16:14:12;17.00;;;10.40;;
5718;SDS011;2884;47.734;9.244;2022-12-07T16:16:38;16.17;;;11.10;;
5718;SDS011;2884;47.734;9.244;2022-12-07T16:19:05;24.27;;;10.98;;
5718;SDS011;2884;47.734;9.244;2022-12-07T16:21:31;15.17;;;10.00;;
5718;SDS011;2884;47.734;9.244;2022-12-07T16:23:59;14.27;;;9.77;;
5718;SDS011;2884;47.734;9.244;2022-12-07T16:26:24;14.20;;;9.23;;
5718;SDS011;2884;47.734;9.244;2022-12-07T16:28:51;12.87;;;9.27;;
5718;SDS011;2884;47.734;9.244;2022-12-07T16:31:19;16.63;;;9.75;;
5718;SDS011;2884;47.734;9.244;2022-12-07T16:33:46;14.77;;;10.52;;
5718;SDS011;2884;47.734;9.244;2022-12-07T16:36:13;15.57;;;9.77;;
5718;SDS011;2884;47.734;9.244;2022-12-07T16:38:41;15.18;;;10.32;;
5718;SDS011;2884;47.734;9.244;2022-12-07T16:41:07;13.70;;;10.37;;
5718;SDS011;2884;47.734;9.244;2022-12-07T16:43:32;22.73;;;11.77;;
5718;SDS011;2884;47.734;9.244;2022-12-07T16:45:58;18.83;;;12.53;;
5718;SDS011;2884;47.734;9.244;2022-12-07T16:48:24;15.90;;;10.73;;
5718;SDS011;2884;47.734;9.244;2022-12-07T16:50:50;16.80;;;11.47;;
5718;SDS011;2884;47.734;9.244;2022-12-07T16:53:18;16.55;;;9.90;;
5718;SDS011;2884;47.734;9.244;2022-12-07T16:55:44;14.93;;;10.10;;
5718;SDS011;2884;47.734;9.244;2022-12-07T16:58:16;18.30;;;9.90;;
5718;SDS011;2884;47.734;9.244;2022-12-07T17:00:42;12.77;;;8.80;;
5718;SDS011;2884;47.734;9.244;2022-12-07T17:03:09;14.60;;;9.65;;
5718;SDS011;2884;47.734;9.244;2022-12-07T17:05:39;15.52;;;10.15;;
5718;SDS011;2884;47.734;9.244;2022-12-07T17:08:06;12.05;;;9.35;;
5718;SDS011;2884;47.734;9.244;2022-12-07T17:10:33;17.67;;;11.20;;
5718;SDS011;2884;47.734;9.244;2022-12-07T17:13:01;13.48;;;9.40;;
5718;SDS011;2884;47.734;9.244;2022-12-07T17:15:27;15.55;;;10.20;;
5718;SDS011;2884;47.734;9.244;2022-12-07T17:17:57;11.20;;;8.40;;
5718;SDS011;2884;47.734;9.244;2022-12-07T17:20:25;14.15;;;9.75;;
5718;SDS011;2884;47.734;9.244;2022-12-07T17:22:51;14.75;;;9.40;;
5718;SDS011;2884;47.734;9.244;2022-12-07T17:25:17;14.07;;;9.60;;
5718;SDS011;2884;47.734;9.244;2022-12-07T17:27:43;13.65;;;9.50;;
5718;SDS011;2884;47.734;9.244;2022-12-07T17:30:09;14.10;;;9.88;;
5718;SDS011;2884;47.734;9.244;2022-12-07T17:32:36;18.25;;;10.65;;
5718;SDS011;2884;47.734;9.244;2022-12-07T17:35:02;20.27;;;11.60;;